Time;durP1;ratioP1;P1;durP2;ratioP2;P2;SDS_P1;SDS_P2;PMS_P1;PMS_P2;Temp;Humidity;BMP_temperature;BMP_pressure;BME280_temperature;BME280_humidity;BME280_pressure;Samples;Min_cycle;Max_cycle;Signal;HPM_P1;HPM_P2
2021/01/15 00:01:21;;;;;;;7.73;4.30;;;3.70;99.90;;;;;;4980525;28;20532;-50
2021/01/15 00:03:48;;;;;;;7.50;4.27;;;3.70;99.90;;;;;;4977558;28;20862;-52
2021/01/15 00:06:19;;;;;;;7.43;5.07;;;3.60;99.90;;;;;;4970502;28;20468;-49
2021/01/15 00:08:46;;;;;;;6.53;4.60;;;3.60;99.90;;;;;;4975830;28;20476;-46
2021/01/15 00:11:17;;;;;;;10.03;5.30;;;3.60;99.90;;;;;;4964912;28;20946;-50
2021/01/15 00:13:43;;;;;;;13.83;5.73;;;3.60;99.90;;;;;;4970224;28;20505;-47
2021/01/15 00:16:18;;;;;;;6.03;3.80;;;3.60;99.90;;;;;;4977781;28;20483;-45
2021/01/15 00:18:44;;;;;;;10.60;4.97;;;3.60;99.90;;;;;;4968946;28;20538;-47
2021/01/15 00:21:19;;;;;;;8.30;3.70;;;3.60;99.90;;;;;;4974167;28;20525;-49
2021/01/15 00:23:45;;;;;;;10.10;4.87;;;3.60;99.90;;;;;;4979374;28;20478;-49
2021/01/15 00:26:17;;;;;;;9.87;5.97;;;3.60;99.90;;;;;;4972480;28;20507;-51
2021/01/15 00:28:43;;;;;;;6.67;4.77;;;3.70;99.90;;;;;;4972946;28;20486;-50
2021/01/15 00:31:10;;;;;;;7.27;4.57;;;3.70;99.90;;;;;;4983149;28;20459;-52
2021/01/15 00:33:41;;;;;;;7.97;4.53;;;3.70;99.90;;;;;;4971634;28;20538;-49
2021/01/15 00:36:09;;;;;;;8.00;4.63;;;3.60;99.90;;;;;;4967419;28;20471;-49
2021/01/15 00:38:36;;;;;;;6.47;4.60;;;3.70;99.90;;;;;;4967473;28;20479;-49
2021/01/15 00:41:04;;;;;;;7.27;4.50;;;3.60;99.90;;;;;;4968123;28;20527;-51
2021/01/15 00:43:30;;;;;;;7.33;4.10;;;3.60;99.90;;;;;;4981771;28;20490;-51
2021/01/15 00:45:57;;;;;;;10.53;4.60;;;3.60;99.90;;;;;;4983878;28;20477;-51
2021/01/15 00:48:23;;;;;;;6.73;4.30;;;3.60;99.90;;;;;;4986834;28;20476;-50
2021/01/15 00:50:51;;;;;;;7.60;4.70;;;3.60;99.90;;;;;;4996466;28;20479;-50
2021/01/15 00:53:17;;;;;;;7.23;5.03;;;3.50;99.90;;;;;;4986447;28;20476;-50
2021/01/15 00:55:44;;;;;;;7.83;4.90;;;3.50;99.90;;;;;;4991672;28;20439;-54
2021/01/15 00:58:12;;;;;;;8.10;4.53;;;3.50;99.90;;;;;;4988362;28;20467;-49
2021/01/15 01:00:39;;;;;;;11.30;5.37;;;3.50;99.90;;;;;;4988560;28;20464;-52
2021/01/15 01:03:06;;;;;;;7.13;4.50;;;3.50;99.90;;;;;;4989001;28;20470;-52
2021/01/15 01:05:32;;;;;;;6.43;4.53;;;3.50;99.90;;;;;;4986189;28;20458;-50
2021/01/15 01:08:00;;;;;;;5.67;3.90;;;3.50;99.90;;;;;;4981401;28;20464;-52
2021/01/15 01:10:26;;;;;;;7.57;4.17;;;3.50;99.90;;;;;;4978149;28;20468;-49
2021/01/15 01:12:53;;;;;;;7.53;3.87;;;3.50;99.90;;;;;;4978097;28;20519;-52
2021/01/15 01:15:20;;;;;;;5.40;4.00;;;3.50;99.90;;;;;;4980475;28;20533;-51
2021/01/15 01:17:46;;;;;;;7.43;4.03;;;3.50;99.90;;;;;;4995526;28;20536;-54
2021/01/15 01:20:13;;;;;;;7.60;4.60;;;3.50;99.90;;;;;;4982532;28;20502;-48
2021/01/15 01:22:39;;;;;;;6.50;5.20;;;3.50;99.90;;;;;;4982839;28;20435;-54
2021/01/15 01:25:08;;;;;;;6.97;4.90;;;3.40;99.90;;;;;;4982317;28;20460;-50
2021/01/15 01:27:34;;;;;;;10.10;4.17;;;3.40;99.90;;;;;;4977444;29;20471;-49
2021/01/15 01:30:01;;;;;;;4.97;3.60;;;3.40;99.90;;;;;;4993430;28;20503;-50
2021/01/15 01:32:27;;;;;;;9.50;4.63;;;3.40;99.90;;;;;;4988686;28;20510;-51
2021/01/15 01:34:53;;;;;;;9.23;4.47;;;3.40;99.90;;;;;;4986872;28;20510;-51
2021/01/15 01:37:20;;;;;;;7.90;4.60;;;3.40;99.90;;;;;;4987688;28;20498;-52
2021/01/15 01:39:46;;;;;;;6.10;4.50;;;3.40;99.90;;;;;;4987264;28;20491;-54
2021/01/15 01:42:13;;;;;;;8.40;4.27;;;3.40;99.90;;;;;;4986503;28;20573;-53
2021/01/15 01:44:40;;;;;;;8.70;5.27;;;3.40;99.90;;;;;;4987029;28;20474;-50
2021/01/15 01:47:07;;;;;;;8.63;5.13;;;3.40;99.90;;;;;;4987396;28;20482;-51
2021/01/15 01:49:33;;;;;;;11.90;4.97;;;3.40;99.90;;;;;;4987078;28;20471;-52
2021/01/15 01:52:03;;;;;;;8.80;5.13;;;3.40;99.90;;;;;;4986785;28;20953;-54
2021/01/15 01:54:33;;;;;;;8.87;5.10;;;3.40;99.90;;;;;;4987501;28;20490;-52
2021/01/15 01:57:01;;;;;;;8.67;4.80;;;3.40;99.90;;;;;;4987265;28;20462;-49
2021/01/15 01:59:28;;;;;;;9.70;4.20;;;3.40;99.90;;;;;;4987455;28;20450;-54
2021/01/15 02:01:55;;;;;;;9.23;4.00;;;3.40;99.90;;;;;;4987121;28;20802;-52
2021/01/15 02:04:22;;;;;;;9.00;4.77;;;3.40;99.90;;;;;;4986183;28;20519;-48
2021/01/15 02:06:50;;;;;;;10.37;5.47;;;3.40;99.90;;;;;;4986842;28;20459;-54
2021/01/15 02:09:23;;;;;;;9.93;4.63;;;3.50;99.90;;;;;;4987083;28;20467;-53
2021/01/15 02:11:58;;;;;;;7.90;5.07;;;3.50;99.90;;;;;;4986679;28;20514;-49
2021/01/15 02:14:32;;;;;;;10.03;4.30;;;3.50;99.90;;;;;;4986529;28;20597;-53
2021/01/15 02:16:59;;;;;;;6.07;4.40;;;3.50;99.90;;;;;;4986612;28;20450;-51
2021/01/15 02:19:47;;;;;;;9.17;4.50;;;3.50;99.90;;;;;;4989328;28;20538;-49
2021/01/15 02:22:43;;;;;;;5.97;4.23;;;3.40;99.90;;;;;;4995095;28;20439;-50
2021/01/15 02:25:58;;;;;;;8.93;5.00;;;3.50;99.90;;;;;;4995668;28;20439;-50
2021/01/15 02:29:00;;;;;;;8.03;4.30;;;3.50;99.90;;;;;;4971786;28;20546;-49
2021/01/15 02:32:09;;;;;;;11.10;4.77;;;3.40;99.90;;;;;;4972355;28;20796;-50
2021/01/15 02:34:57;;;;;;;6.70;3.97;;;3.40;99.90;;;;;;4973666;28;20918;-54
2021/01/15 02:37:30;;;;;;;7.70;4.73;;;3.40;99.90;;;;;;4943704;28;20464;-51
2021/01/15 02:40:03;;;;;;;7.03;4.67;;;3.40;99.90;;;;;;4955441;29;20513;-55
2021/01/15 02:42:33;;;;;;;7.77;3.90;;;3.40;99.90;;;;;;4955412;29;20535;-54
2021/01/15 02:45:01;;;;;;;6.17;4.43;;;3.40;99.90;;;;;;4955646;29;20460;-54
2021/01/15 02:47:32;;;;;;;8.10;4.20;;;3.40;99.90;;;;;;4955600;29;20451;-52
2021/01/15 02:50:02;;;;;;;8.27;4.57;;;3.40;99.90;;;;;;4955610;29;20542;-53
2021/01/15 02:52:29;;;;;;;9.50;4.97;;;3.30;99.90;;;;;;4955283;29;20519;-50
2021/01/15 02:54:55;;;;;;;9.03;4.50;;;3.30;99.90;;;;;;4955242;29;20543;-52
2021/01/15 02:57:22;;;;;;;6.90;4.43;;;3.30;99.90;;;;;;4955595;29;20462;-52
2021/01/15 02:59:48;;;;;;;7.60;4.10;;;3.30;99.90;;;;;;4955688;29;20837;-55
2021/01/15 03:02:21;;;;;;;6.93;4.73;;;3.30;99.90;;;;;;4955608;29;20444;-54
2021/01/15 03:04:56;;;;;;;7.80;4.83;;;3.30;99.90;;;;;;4955549;29;20458;-52
2021/01/15 03:07:24;;;;;;;9.50;5.07;;;3.30;99.90;;;;;;4955354;29;20458;-51
2021/01/15 03:09:55;;;;;;;11.70;5.60;;;3.30;99.90;;;;;;4955442;29;20459;-47
2021/01/15 03:12:24;;;;;;;8.80;5.03;;;3.20;99.90;;;;;;4955105;29;20474;-54
2021/01/15 03:14:55;;;;;;;8.43;4.73;;;3.30;99.90;;;;;;4958137;28;20594;-52
2021/01/15 03:17:25;;;;;;;8.33;5.10;;;3.20;99.90;;;;;;4957888;28;20451;-52
2021/01/15 03:19:55;;;;;;;9.80;5.87;;;3.20;99.90;;;;;;4959146;29;20510;-53
2021/01/15 03:22:24;;;;;;;10.43;5.70;;;3.20;99.90;;;;;;4959085;29;20436;-51
2021/01/15 03:24:53;;;;;;;9.30;5.17;;;3.20;99.90;;;;;;4958888;29;20539;-54
2021/01/15 03:27:21;;;;;;;7.77;5.37;;;3.20;99.90;;;;;;4958881;29;20835;-52
2021/01/15 03:29:48;;;;;;;7.70;5.00;;;3.10;99.90;;;;;;4958918;29;20465;-47
2021/01/15 03:32:15;;;;;;;8.00;6.10;;;3.10;99.90;;;;;;4958769;29;20546;-53
2021/01/15 03:34:41;;;;;;;9.60;5.90;;;3.10;99.90;;;;;;4958722;29;20447;-51
2021/01/15 03:37:09;;;;;;;8.77;5.83;;;3.10;99.90;;;;;;4958677;29;20526;-55
2021/01/15 03:39:39;;;;;;;10.93;5.27;;;3.20;99.90;;;;;;4958802;29;20499;-52
2021/01/15 03:42:08;;;;;;;9.73;5.00;;;3.20;99.90;;;;;;4958903;29;20443;-53
2021/01/15 03:44:37;;;;;;;12.80;6.20;;;3.10;99.90;;;;;;4958609;29;20458;-52
2021/01/15 03:47:06;;;;;;;7.37;5.13;;;3.10;99.90;;;;;;4958376;29;20554;-53
2021/01/15 03:49:32;;;;;;;9.00;5.13;;;3.10;99.90;;;;;;4958874;29;20531;-51
2021/01/15 03:52:01;;;;;;;9.83;5.50;;;3.20;99.90;;;;;;4958577;29;20479;-55
2021/01/15 03:54:27;;;;;;;11.57;5.27;;;3.20;99.90;;;;;;4958362;29;21070;-55
2021/01/15 03:56:55;;;;;;;7.13;4.80;;;3.20;99.90;;;;;;4958546;29;20798;-53
2021/01/15 03:59:21;;;;;;;9.30;4.07;;;3.20;99.90;;;;;;4958414;29;20456;-54
2021/01/15 04:01:47;;;;;;;10.60;4.30;;;3.10;99.90;;;;;;4958300;29;20453;-55
2021/01/15 04:04:14;;;;;;;5.63;3.80;;;3.10;99.90;;;;;;4958146;29;20463;-52
2021/01/15 04:06:40;;;;;;;7.47;4.90;;;3.10;99.90;;;;;;4958251;29;20538;-48
2021/01/15 04:09:06;;;;;;;6.10;3.97;;;3.20;99.90;;;;;;4958111;29;20474;-53
2021/01/15 04:11:33;;;;;;;5.70;4.63;;;3.20;99.90;;;;;;4958349;29;20459;-52
2021/01/15 04:14:00;;;;;;;11.33;5.30;;;3.20;99.90;;;;;;4957891;29;20828;-51
2021/01/15 04:16:26;;;;;;;7.70;5.03;;;3.20;99.90;;;;;;4957789;29;20439;-51
2021/01/15 04:18:53;;;;;;;6.63;4.50;;;3.20;99.90;;;;;;4958158;29;21105;-55
2021/01/15 04:21:19;;;;;;;6.60;4.63;;;3.20;99.90;;;;;;4958128;29;20452;-52
2021/01/15 04:23:46;;;;;;;7.70;4.57;;;3.20;99.90;;;;;;4957894;29;20865;-54
2021/01/15 04:26:20;;;;;;;6.70;5.70;;;3.20;99.90;;;;;;4958138;29;20471;-52
2021/01/15 04:28:47;;;;;;;10.17;5.37;;;3.20;99.90;;;;;;4957252;28;20950;-52
2021/01/15 04:31:17;;;;;;;6.90;5.50;;;3.20;99.90;;;;;;4957716;29;20458;-52
2021/01/15 04:33:43;;;;;;;7.70;4.47;;;3.20;99.90;;;;;;4957911;29;20488;-54
2021/01/15 04:36:11;;;;;;;10.80;5.50;;;3.20;99.90;;;;;;4957681;29;20551;-54
2021/01/15 04:38:39;;;;;;;8.43;4.70;;;3.10;99.90;;;;;;4957577;29;20444;-52
2021/01/15 04:41:05;;;;;;;8.80;4.40;;;3.10;99.90;;;;;;4957554;29;20539;-50
2021/01/15 04:43:34;;;;;;;8.60;4.70;;;3.10;99.90;;;;;;4957528;29;20778;-55
2021/01/15 04:46:05;;;;;;;7.57;4.57;;;3.10;99.90;;;;;;4957668;29;20543;-53
2021/01/15 04:48:36;;;;;;;10.80;4.63;;;3.00;99.90;;;;;;4957753;29;20522;-49
2021/01/15 04:51:03;;;;;;;7.90;5.33;;;3.00;99.90;;;;;;4957466;29;20480;-52
2021/01/15 04:53:31;;;;;;;8.60;5.10;;;3.00;99.90;;;;;;5000581;23;20494;-53
2021/01/15 04:56:03;;;;;;;8.63;5.20;;;3.00;99.90;;;;;;4983227;23;20486;-52
2021/01/15 04:58:34;;;;;;;8.77;5.17;;;2.90;99.90;;;;;;4976492;28;20509;-55
2021/01/15 05:01:00;;;;;;;6.60;5.00;;;2.90;99.90;;;;;;4976905;28;20660;-51
2021/01/15 05:03:27;;;;;;;6.70;4.90;;;3.00;99.90;;;;;;4976324;28;20485;-53
2021/01/15 05:06:00;;;;;;;7.40;4.10;;;2.90;99.90;;;;;;4976564;28;20534;-55
2021/01/15 05:08:28;;;;;;;7.77;4.73;;;2.90;99.90;;;;;;4976265;28;20503;-50
2021/01/15 05:10:56;;;;;;;6.30;4.23;;;2.90;99.90;;;;;;4976661;28;20513;-53
2021/01/15 05:13:22;;;;;;;8.20;4.50;;;2.80;99.90;;;;;;4976350;28;20581;-50
2021/01/15 05:15:51;;;;;;;7.20;4.03;;;2.80;99.90;;;;;;4960223;28;20468;-50
2021/01/15 05:18:19;;;;;;;7.23;4.27;;;2.70;99.90;;;;;;4957152;29;20459;-49
2021/01/15 05:20:47;;;;;;;8.30;4.10;;;2.70;99.90;;;;;;4956857;29;20452;-54
2021/01/15 05:23:16;;;;;;;5.10;4.20;;;2.70;99.90;;;;;;4956646;29;20539;-55
2021/01/15 05:25:44;;;;;;;5.90;4.07;;;2.60;99.90;;;;;;4956733;29;20571;-53
2021/01/15 05:28:11;;;;;;;4.80;3.50;;;2.70;99.90;;;;;;4956776;29;20456;-50
2021/01/15 05:30:41;;;;;;;7.87;4.43;;;2.70;99.90;;;;;;4957121;29;20472;-50
2021/01/15 05:33:13;;;;;;;8.47;3.40;;;2.70;99.90;;;;;;4956413;29;20523;-50
2021/01/15 05:35:42;;;;;;;12.43;4.00;;;2.60;99.90;;;;;;4956761;29;20522;-50
2021/01/15 05:38:11;;;;;;;7.40;4.40;;;2.60;99.90;;;;;;4956932;28;20586;-49
2021/01/15 05:40:40;;;;;;;6.63;4.40;;;2.60;99.90;;;;;;4955944;29;20526;-55
2021/01/15 05:43:07;;;;;;;7.43;4.43;;;2.50;99.90;;;;;;4956680;29;20522;-50
2021/01/15 05:45:33;;;;;;;6.80;5.27;;;2.60;99.90;;;;;;4956328;29;20475;-53
2021/01/15 05:48:00;;;;;;;6.00;3.90;;;2.50;99.90;;;;;;4956652;29;20455;-53
2021/01/15 05:50:40;;;;;;;8.27;4.97;;;2.60;99.90;;;;;;4956507;29;20567;-51
2021/01/15 05:53:07;;;;;;;11.27;4.47;;;2.50;99.90;;;;;;4956389;29;20523;-55
2021/01/15 05:55:34;;;;;;;7.70;6.27;;;2.50;99.90;;;;;;4956100;29;20984;-52
2021/01/15 05:58:11;;;;;;;10.17;4.90;;;2.60;99.90;;;;;;4956272;29;21013;-53
2021/01/15 06:00:40;;;;;;;11.50;5.37;;;2.60;99.90;;;;;;4956015;29;20923;-53
2021/01/15 06:03:08;;;;;;;7.63;4.90;;;2.60;99.90;;;;;;4956054;29;20443;-54
2021/01/15 06:05:37;;;;;;;7.50;4.70;;;2.70;99.90;;;;;;4956091;29;20503;-52
2021/01/15 06:08:04;;;;;;;6.37;4.93;;;2.70;99.90;;;;;;4955836;29;20464;-53
2021/01/15 06:10:42;;;;;;;8.30;5.40;;;2.80;99.90;;;;;;4955932;29;20880;-49
2021/01/15 06:13:10;;;;;;;7.40;4.83;;;2.80;99.90;;;;;;4956287;29;20472;-53
2021/01/15 06:15:47;;;;;;;8.33;5.30;;;2.80;99.90;;;;;;4956173;29;20798;-55
2021/01/15 06:18:18;;;;;;;5.90;4.63;;;2.80;99.90;;;;;;4956068;29;20462;-54
2021/01/15 06:20:46;;;;;;;7.90;4.60;;;2.80;99.90;;;;;;4956141;29;20456;-52
2021/01/15 06:23:14;;;;;;;10.43;5.83;;;2.80;99.90;;;;;;4955803;29;20454;-55
2021/01/15 06:25:56;;;;;;;10.10;5.53;;;2.80;99.90;;;;;;4955925;29;20546;-54
2021/01/15 06:28:33;;;;;;;6.73;4.70;;;2.80;99.90;;;;;;4955880;29;20884;-53
2021/01/15 06:31:02;;;;;;;6.20;4.30;;;2.70;99.90;;;;;;4955724;29;20489;-53
2021/01/15 06:33:28;;;;;;;6.23;4.87;;;2.70;99.90;;;;;;4956118;29;20487;-53
2021/01/15 06:35:55;;;;;;;6.90;4.33;;;2.70;99.90;;;;;;4955687;29;20536;-55
2021/01/15 06:38:27;;;;;;;10.07;5.90;;;2.70;99.90;;;;;;4955804;29;20527;-54
2021/01/15 06:40:54;;;;;;;6.90;4.10;;;2.70;99.90;;;;;;4955831;29;20834;-55
2021/01/15 06:43:25;;;;;;;7.53;4.60;;;2.70;99.90;;;;;;4955540;29;20441;-53
2021/01/15 06:45:54;;;;;;;10.33;6.60;;;2.80;99.90;;;;;;4955908;29;20926;-47
2021/01/15 06:48:22;;;;;;;7.00;4.00;;;2.80;99.90;;;;;;4955534;29;20451;-51
2021/01/15 06:50:49;;;;;;;6.93;4.60;;;2.80;99.90;;;;;;4955286;28;20547;-50
2021/01/15 06:53:18;;;;;;;9.57;5.80;;;2.70;99.90;;;;;;4947639;29;20487;-48
2021/01/15 06:55:46;;;;;;;5.63;4.00;;;2.70;99.90;;;;;;4955326;29;20491;-48
2021/01/15 06:58:22;;;;;;;6.27;4.27;;;2.80;99.90;;;;;;4955440;29;20479;-52
2021/01/15 07:01:20;;;;;;;6.87;4.80;;;2.70;99.90;;;;;;4955334;29;20550;-52
2021/01/15 07:04:15;;;;;;;9.40;4.93;;;2.70;99.90;;;;;;4955353;29;20488;-48
2021/01/15 07:07:05;;;;;;;10.43;5.33;;;2.70;99.90;;;;;;4950952;29;20440;-50
2021/01/15 07:09:35;;;;;;;5.20;3.50;;;2.70;99.90;;;;;;4940686;29;20958;-51
2021/01/15 07:12:05;;;;;;;6.53;4.80;;;2.70;99.90;;;;;;4955408;29;20447;-55
2021/01/15 07:14:43;;;;;;;7.80;4.43;;;2.70;99.90;;;;;;4955567;28;20444;-50
2021/01/15 07:17:15;;;;;;;7.27;4.57;;;2.80;99.90;;;;;;4955104;29;21105;-54
2021/01/15 07:19:44;;;;;;;8.87;5.30;;;2.80;99.90;;;;;;4955442;29;20531;-51
2021/01/15 07:22:12;;;;;;;7.30;4.53;;;2.80;99.90;;;;;;4955369;29;20511;-53
2021/01/15 07:24:40;;;;;;;6.30;4.80;;;2.70;99.90;;;;;;4954801;29;20479;-54
2021/01/15 07:27:09;;;;;;;5.50;4.50;;;2.80;99.90;;;;;;4955180;29;20546;-53
2021/01/15 07:29:44;;;;;;;7.73;4.53;;;2.80;99.90;;;;;;4955174;29;20542;-48
2021/01/15 07:32:21;;;;;;;7.70;4.70;;;2.70;99.90;;;;;;4954952;29;20994;-50
2021/01/15 07:34:53;;;;;;;7.80;4.87;;;2.70;99.90;;;;;;4955018;29;20467;-52
2021/01/15 07:37:25;;;;;;;10.53;5.30;;;2.70;99.90;;;;;;4954925;29;20543;-49
2021/01/15 07:40:15;;;;;;;8.97;5.33;;;2.70;99.90;;;;;;4955323;29;20563;-49
2021/01/15 07:42:49;;;;;;;6.70;4.30;;;2.70;99.90;;;;;;4951735;29;20779;-51
2021/01/15 07:45:52;;;;;;;5.80;4.17;;;2.70;99.90;;;;;;4954969;29;20492;-49
2021/01/15 07:48:20;;;;;;;8.70;4.50;;;2.70;99.90;;;;;;4954695;29;20551;-51
2021/01/15 07:50:48;;;;;;;9.27;5.60;;;2.60;99.90;;;;;;4954766;29;20449;-53
2021/01/15 07:53:23;;;;;;;6.93;4.73;;;2.60;99.90;;;;;;4954689;29;21034;-53
2021/01/15 07:55:51;;;;;;;8.00;5.73;;;2.70;99.90;;;;;;4954956;29;20787;-53
2021/01/15 07:58:18;;;;;;;7.97;4.67;;;2.70;99.90;;;;;;4947426;29;20573;-49
2021/01/15 08:00:46;;;;;;;8.40;4.67;;;2.60;99.90;;;;;;4955149;29;20977;-51
2021/01/15 08:03:14;;;;;;;7.30;4.43;;;2.70;99.90;;;;;;4956773;28;20538;-55
2021/01/15 08:05:43;;;;;;;7.83;4.87;;;2.60;99.90;;;;;;4958248;29;20467;-49
2021/01/15 08:08:12;;;;;;;9.77;4.77;;;2.70;99.90;;;;;;4958451;29;20464;-53
2021/01/15 08:10:48;;;;;;;6.73;5.00;;;2.70;99.90;;;;;;4958155;29;20458;-55
2021/01/15 08:13:19;;;;;;;6.33;4.73;;;2.70;99.90;;;;;;4958230;29;20562;-50
2021/01/15 08:15:45;;;;;;;8.53;5.03;;;2.70;99.90;;;;;;4970571;29;20470;-55
2021/01/15 08:18:13;;;;;;;5.43;4.10;;;2.70;99.90;;;;;;4980272;29;20444;-51
2021/01/15 08:20:41;;;;;;;8.40;4.60;;;2.70;99.90;;;;;;4980622;29;20451;-52
2021/01/15 08:23:20;;;;;;;7.03;5.53;;;2.70;99.90;;;;;;4980394;29;20476;-55
2021/01/15 08:25:48;;;;;;;13.10;5.57;;;2.70;99.90;;;;;;4980546;29;20450;-51
2021/01/15 08:28:14;;;;;;;9.47;6.00;;;2.70;99.90;;;;;;4980210;29;20443;-55
2021/01/15 08:31:00;;;;;;;8.33;5.67;;;2.70;99.90;;;;;;4979697;28;20466;-53
2021/01/15 08:33:27;;;;;;;11.40;7.43;;;2.70;99.90;;;;;;4985556;28;20976;-55
2021/01/15 08:35:55;;;;;;;9.03;5.17;;;2.70;99.90;;;;;;5293342;23;21307;-48
2021/01/15 08:38:30;;;;;;;8.50;4.83;;;2.70;99.90;;;;;;5003002;28;20453;-46
2021/01/15 08:40:57;;;;;;;6.40;4.27;;;2.70;99.90;;;;;;5010317;28;20441;-49
2021/01/15 08:43:25;;;;;;;10.30;5.00;;;2.70;99.90;;;;;;5002480;28;20443;-49
2021/01/15 08:45:52;;;;;;;7.87;4.40;;;2.60;99.90;;;;;;5008306;28;20549;-50
2021/01/15 08:48:20;;;;;;;8.70;4.70;;;2.60;99.90;;;;;;5020279;28;20461;-44
2021/01/15 08:50:46;;;;;;;7.50;4.70;;;2.50;99.90;;;;;;5018853;28;20442;-53
2021/01/15 08:53:17;;;;;;;10.60;4.93;;;2.50;99.90;;;;;;5000295;28;20510;-46
2021/01/15 08:55:49;;;;;;;7.63;4.10;;;2.50;99.90;;;;;;5016894;28;20505;-48
2021/01/15 09:01:40;;;;;;;8.30;5.83;;;2.50;99.90;;;;;;4985751;28;20505;-46
2021/01/15 09:04:07;;;;;;;7.20;4.63;;;2.50;99.90;;;;;;4999087;28;20893;-48
2021/01/15 09:06:35;;;;;;;8.90;5.47;;;2.50;99.90;;;;;;4999486;28;20439;-50
2021/01/15 09:09:04;;;;;;;9.60;5.40;;;2.50;99.90;;;;;;4999469;28;20453;-48
2021/01/15 09:11:34;;;;;;;8.03;4.90;;;2.50;99.90;;;;;;4998510;28;20463;-48
2021/01/15 09:14:01;;;;;;;7.07;5.07;;;2.50;99.90;;;;;;4997932;28;20494;-44
2021/01/15 09:16:29;;;;;;;9.60;4.80;;;2.50;99.90;;;;;;4998154;28;20457;-47
2021/01/15 09:19:03;;;;;;;8.57;5.20;;;2.60;99.90;;;;;;4998850;28;20431;-47
2021/01/15 09:21:30;;;;;;;7.60;4.50;;;2.50;99.90;;;;;;4999595;28;20414;-50
2021/01/15 09:23:56;;;;;;;12.33;5.70;;;2.50;99.90;;;;;;4999609;28;20508;-46
2021/01/15 09:26:24;;;;;;;6.83;4.90;;;2.50;99.90;;;;;;4999957;28;20497;-53
2021/01/15 09:28:51;;;;;;;9.20;6.07;;;2.50;99.90;;;;;;4999937;28;20454;-46
2021/01/15 09:31:18;;;;;;;10.60;6.17;;;2.40;99.90;;;;;;5000108;28;20435;-47
2021/01/15 09:33:47;;;;;;;11.90;5.77;;;2.40;99.90;;;;;;4999751;28;20505;-47
2021/01/15 09:36:24;;;;;;;7.07;4.50;;;2.40;99.90;;;;;;4998965;28;20481;-49
2021/01/15 09:38:53;;;;;;;10.87;5.10;;;2.40;99.90;;;;;;4998726;28;20520;-46
2021/01/15 09:41:26;;;;;;;5.90;4.40;;;2.40;99.90;;;;;;4998677;28;20427;-49
2021/01/15 09:43:54;;;;;;;8.60;5.00;;;2.30;99.90;;;;;;4998609;28;20447;-51
2021/01/15 09:46:22;;;;;;;6.43;4.50;;;2.20;99.90;;;;;;4998395;28;20451;-46
2021/01/15 09:48:50;;;;;;;9.97;5.50;;;2.10;99.90;;;;;;4998349;28;20458;-52
2021/01/15 09:51:16;;;;;;;9.47;5.70;;;2.00;99.90;;;;;;4989376;28;20443;-50
2021/01/15 09:53:43;;;;;;;11.43;5.03;;;2.00;99.90;;;;;;4999206;28;20520;-52
2021/01/15 09:56:10;;;;;;;9.77;5.10;;;2.00;99.90;;;;;;5000857;28;20454;-46
2021/01/15 09:58:36;;;;;;;6.73;4.10;;;2.00;99.90;;;;;;5012293;28;20453;-47
2021/01/15 10:01:04;;;;;;;8.33;5.23;;;2.00;99.90;;;;;;4990540;28;20514;-45
2021/01/15 10:03:33;;;;;;;8.93;4.90;;;2.10;99.90;;;;;;4988376;28;20836;-48
2021/01/15 10:06:01;;;;;;;8.97;5.43;;;2.20;99.90;;;;;;5001295;28;20446;-46
2021/01/15 10:08:28;;;;;;;8.87;6.20;;;2.20;99.90;;;;;;4989266;28;20470;-46
2021/01/15 10:10:58;;;;;;;7.60;5.40;;;2.10;99.90;;;;;;4989896;28;20500;-51
2021/01/15 10:13:25;;;;;;;8.97;5.83;;;2.10;99.90;;;;;;4993161;28;20486;-44
2021/01/15 10:15:51;;;;;;;10.40;7.33;;;2.10;99.90;;;;;;4984965;28;20458;-49
2021/01/15 10:18:19;;;;;;;16.03;5.97;;;2.10;99.90;;;;;;5001970;28;20466;-46
2021/01/15 10:20:46;;;;;;;9.23;6.17;;;2.10;99.90;;;;;;4996779;28;20510;-48
2021/01/15 10:23:13;;;;;;;7.90;4.93;;;2.10;99.90;;;;;;4996305;28;20489;-50
2021/01/15 10:25:41;;;;;;;12.90;5.40;;;2.10;99.90;;;;;;4988082;28;20526;-51
2021/01/15 10:28:08;;;;;;;7.47;5.00;;;2.00;99.90;;;;;;4995505;28;20446;-45
2021/01/15 10:30:35;;;;;;;9.40;5.43;;;2.00;99.90;;;;;;4988859;28;20446;-51
2021/01/15 10:33:03;;;;;;;11.60;5.50;;;2.00;99.90;;;;;;4993473;28;20482;-51
2021/01/15 10:35:35;;;;;;;6.10;4.83;;;1.90;99.90;;;;;;5007660;28;20490;-52
2021/01/15 10:38:02;;;;;;;7.83;4.73;;;1.90;99.90;;;;;;5001534;28;20506;-48
2021/01/15 10:40:29;;;;;;;6.57;5.07;;;1.90;99.90;;;;;;4997128;28;20534;-44
2021/01/15 10:42:55;;;;;;;8.20;4.87;;;1.90;99.90;;;;;;5012992;28;20955;-44
2021/01/15 10:45:22;;;;;;;6.63;4.00;;;1.90;99.90;;;;;;5000532;28;20446;-48
2021/01/15 10:47:48;;;;;;;7.80;5.30;;;1.90;99.90;;;;;;4993170;28;20451;-47
2021/01/15 10:50:17;;;;;;;5.27;4.07;;;1.90;99.90;;;;;;4999878;28;20445;-50
2021/01/15 10:52:51;;;;;;;5.60;4.23;;;2.00;99.90;;;;;;5000587;28;20486;-45
2021/01/15 10:55:18;;;;;;;7.13;5.40;;;2.00;99.90;;;;;;4994273;28;20446;-51
2021/01/15 10:57:45;;;;;;;6.80;4.40;;;2.10;99.90;;;;;;4991953;28;20529;-47
2021/01/15 11:00:13;;;;;;;14.17;6.10;;;2.10;99.90;;;;;;5662004;23;20490;-45
2021/01/15 11:02:39;;;;;;;9.20;6.57;;;2.20;99.90;;;;;;4996798;28;20524;-48
2021/01/15 11:05:07;;;;;;;9.30;5.20;;;2.20;99.90;;;;;;4999602;28;20473;-46
2021/01/15 11:07:34;;;;;;;8.40;5.73;;;2.30;99.90;;;;;;5002408;28;20446;-43
2021/01/15 11:10:02;;;;;;;9.30;5.57;;;2.40;99.90;;;;;;5003866;28;20431;-44
2021/01/15 11:12:28;;;;;;;6.67;4.37;;;2.40;99.90;;;;;;4997475;28;20442;-46
2021/01/15 11:14:55;;;;;;;8.53;4.97;;;2.50;99.90;;;;;;4996438;28;20471;-43
2021/01/15 11:17:22;;;;;;;7.63;5.03;;;2.50;99.90;;;;;;4983073;28;20475;-45
2021/01/15 11:19:48;;;;;;;10.70;5.77;;;2.40;99.90;;;;;;5004821;28;20433;-43
2021/01/15 11:22:15;;;;;;;8.00;5.13;;;2.40;99.90;;;;;;5010101;28;20477;-47
2021/01/15 11:24:41;;;;;;;16.40;7.27;;;2.30;99.90;;;;;;5014402;28;20450;-44
2021/01/15 11:27:09;;;;;;;7.50;4.53;;;2.30;99.90;;;;;;5003404;28;20486;-46
2021/01/15 11:29:36;;;;;;;7.00;5.10;;;2.30;99.90;;;;;;5003734;28;20437;-46
2021/01/15 11:32:03;;;;;;;8.37;5.70;;;2.40;99.90;;;;;;5001549;28;20454;-51
2021/01/15 11:34:29;;;;;;;12.60;5.73;;;2.40;99.90;;;;;;5014419;28;20473;-47
2021/01/15 11:36:56;;;;;;;6.67;4.53;;;2.40;99.90;;;;;;5004913;28;20435;-43
2021/01/15 11:39:23;;;;;;;9.20;4.90;;;2.40;99.90;;;;;;4996485;28;20497;-49
2021/01/15 11:41:52;;;;;;;8.87;5.27;;;2.40;99.90;;;;;;5006282;28;20452;-44
2021/01/15 11:44:19;;;;;;;8.37;4.97;;;2.40;99.90;;;;;;5011659;28;20454;-47
2021/01/15 11:46:46;;;;;;;8.37;4.77;;;2.60;99.90;;;;;;5009107;28;20458;-47
2021/01/15 11:49:14;;;;;;;6.80;4.93;;;2.50;99.90;;;;;;5007019;28;20484;-47
2021/01/15 11:51:40;;;;;;;11.00;5.67;;;2.40;99.90;;;;;;5005393;28;20458;-45
2021/01/15 11:54:12;;;;;;;7.07;4.60;;;2.40;99.90;;;;;;5016810;28;20476;-46
2021/01/15 11:56:39;;;;;;;9.93;5.90;;;2.30;99.90;;;;;;5011474;28;20473;-50
2021/01/15 11:59:06;;;;;;;11.13;6.37;;;2.30;99.90;;;;;;5007038;28;20473;-45
2021/01/15 12:01:34;;;;;;;6.50;4.03;;;2.30;99.90;;;;;;5003940;28;20504;-48
2021/01/15 12:04:03;;;;;;;9.67;5.97;;;2.30;99.90;;;;;;5011385;28;20438;-49
2021/01/15 12:06:30;;;;;;;11.00;5.87;;;2.50;99.90;;;;;;5005723;28;20825;-51
2021/01/15 12:08:58;;;;;;;10.23;5.63;;;2.40;99.90;;;;;;5000080;28;20498;-54
2021/01/15 12:11:25;;;;;;;13.10;7.17;;;2.40;99.90;;;;;;5007756;28;20462;-48
2021/01/15 12:13:54;;;;;;;10.80;5.53;;;2.50;99.90;;;;;;5005214;28;20478;-49
2021/01/15 12:16:23;;;;;;;8.93;6.20;;;2.60;99.90;;;;;;5005602;28;20443;-49
2021/01/15 12:18:51;;;;;;;10.03;6.00;;;2.80;99.90;;;;;;5000130;28;20438;-52
2021/01/15 12:21:18;;;;;;;15.70;7.03;;;2.80;99.90;;;;;;5013902;28;20472;-53
2021/01/15 12:23:45;;;;;;;8.63;5.00;;;2.70;99.90;;;;;;5006279;28;20466;-55
2021/01/15 12:26:12;;;;;;;12.50;5.90;;;2.70;99.90;;;;;;5006047;28;20434;-47
2021/01/15 12:28:38;;;;;;;19.57;6.30;;;2.50;99.90;;;;;;5016643;28;20430;-50
2021/01/15 12:31:05;;;;;;;7.90;5.83;;;2.40;99.90;;;;;;4992308;28;20443;-50
2021/01/15 12:33:32;;;;;;;11.20;6.80;;;2.40;99.90;;;;;;5008056;28;20481;-51
2021/01/15 12:35:59;;;;;;;9.53;5.20;;;2.40;99.90;;;;;;5001357;28;20434;-51
2021/01/15 12:38:26;;;;;;;9.33;5.77;;;2.50;99.90;;;;;;5001984;28;20481;-51
2021/01/15 12:40:54;;;;;;;11.93;5.00;;;2.70;99.90;;;;;;5004165;28;20462;-44
2021/01/15 12:43:21;;;;;;;9.37;5.20;;;2.90;99.90;;;;;;5003838;28;20438;-51
2021/01/15 12:45:50;;;;;;;7.87;5.30;;;3.10;99.90;;;;;;5008286;28;20458;-45
2021/01/15 12:48:17;;;;;;;6.17;3.90;;;3.10;99.90;;;;;;5004613;28;20460;-47
2021/01/15 12:50:46;;;;;;;6.93;4.20;;;3.00;99.90;;;;;;5004049;28;20454;-45
2021/01/15 12:53:14;;;;;;;9.10;5.63;;;3.00;99.90;;;;;;5001249;28;20471;-53
2021/01/15 12:55:40;;;;;;;8.20;4.97;;;2.90;99.90;;;;;;4996783;28;20450;-48
2021/01/15 12:58:07;;;;;;;7.20;4.70;;;2.70;99.90;;;;;;4997739;28;20462;-47
2021/01/15 13:00:34;;;;;;;6.63;4.00;;;2.70;99.90;;;;;;5000763;28;20475;-50
2021/01/15 13:03:01;;;;;;;7.57;4.97;;;2.50;99.90;;;;;;5003593;28;20572;-50
2021/01/15 13:05:28;;;;;;;7.00;4.60;;;2.40;99.90;;;;;;5008151;28;20430;-49
2021/01/15 13:07:58;;;;;;;7.10;5.50;;;2.40;99.90;;;;;;5010334;28;20477;-51
2021/01/15 13:10:25;;;;;;;11.60;4.87;;;2.40;99.90;;;;;;5003340;28;20483;-53